createdAt,value
2019-05-18T00:00:02.398Z,10.63
2019-05-18T00:02:32.995Z,11.37
2019-05-18T00:05:04.211Z,9.97
2019-05-18T00:07:34.463Z,11.63
2019-05-18T00:10:05.160Z,11.03
2019-05-18T00:12:36.480Z,8.27
2019-05-18T00:15:08.182Z,9.83
2019-05-18T00:17:38.860Z,9.10
2019-05-18T00:20:10.058Z,9.77
2019-05-18T00:22:40.194Z,9.60
2019-05-18T00:25:10.789Z,10.80
2019-05-18T00:27:41.319Z,11.53
2019-05-18T00:30:11.852Z,12.77
2019-05-18T00:32:42.346Z,13.10
2019-05-18T00:35:12.712Z,12.30
2019-05-18T00:37:42.742Z,12.70
2019-05-18T00:40:12.939Z,13.87
2019-05-18T00:42:42.936Z,14.00
2019-05-18T00:45:13.901Z,11.50
2019-05-18T00:47:44.116Z,10.13
2019-05-18T00:50:14.447Z,9.57
2019-05-18T00:52:44.664Z,10.27
2019-05-18T00:55:15.156Z,8.10
2019-05-18T00:57:45.219Z,11.20
2019-05-18T01:00:15.500Z,10.90
2019-05-18T01:03:58.292Z,9.63
2019-05-18T01:06:26.724Z,11.40
2019-05-18T01:08:57.576Z,10.40
2019-05-18T01:11:28.223Z,9.90
2019-05-18T01:13:59.205Z,9.87
2019-05-18T01:16:29.399Z,11.37
2019-05-18T01:18:59.477Z,12.93
2019-05-18T01:21:30.562Z,13.53
2019-05-18T01:24:00.912Z,13.60
2019-05-18T01:26:31.145Z,13.87
2019-05-18T01:29:04.240Z,13.43
2019-05-18T01:31:35.402Z,11.87
2019-05-18T01:34:05.598Z,11.20
2019-05-18T01:36:36.593Z,13.70
2019-05-18T01:39:08.204Z,11.67
2019-05-18T01:41:38.824Z,10.30
2019-05-18T01:44:10.167Z,11.00
2019-05-18T01:46:40.331Z,10.30
2019-05-18T01:49:11.078Z,12.80
2019-05-18T01:51:41.374Z,12.50
2019-05-18T01:54:11.676Z,8.27
2019-05-18T01:56:41.872Z,8.17
2019-05-18T01:59:11.960Z,8.63
2019-05-18T02:01:42.283Z,8.83
2019-05-18T02:04:12.577Z,10.27
2019-05-18T02:06:42.757Z,9.90
2019-05-18T02:09:13.038Z,6.53
2019-05-18T02:11:43.484Z,7.57
2019-05-18T02:14:13.680Z,6.10
2019-05-18T02:16:44.581Z,6.23
2019-05-18T02:19:14.811Z,6.03
2019-05-18T02:21:45.062Z,4.20
2019-05-18T02:24:15.374Z,3.63
2019-05-18T02:26:45.439Z,4.10
2019-05-18T02:29:15.434Z,5.07
2019-05-18T02:31:45.920Z,3.90
2019-05-18T02:34:16.876Z,4.90
2019-05-18T02:36:47.365Z,4.07
2019-05-18T02:39:18.017Z,4.47
2019-05-18T02:41:47.975Z,4.53
2019-05-18T02:44:18.249Z,5.30
2019-05-18T02:46:48.868Z,5.33
2019-05-18T02:49:19.327Z,5.93
2019-05-18T02:51:49.547Z,5.40
2019-05-18T02:54:19.876Z,4.50
2019-05-18T02:56:50.244Z,4.40
2019-05-18T02:59:20.857Z,3.40
2019-05-18T03:01:51.056Z,3.57
2019-05-18T03:04:21.532Z,4.23
2019-05-18T03:06:51.804Z,3.80
2019-05-18T03:09:22.810Z,3.90
2019-05-18T03:11:53.658Z,4.30
2019-05-18T03:14:23.705Z,4.83
2019-05-18T03:16:54.202Z,4.50
2019-05-18T03:19:24.410Z,4.23
2019-05-18T03:21:54.708Z,4.30
2019-05-18T03:24:24.826Z,4.50
2019-05-18T03:26:55.207Z,4.37
2019-05-18T03:29:25.650Z,4.47
2019-05-18T03:31:55.821Z,4.10
2019-05-18T03:34:26.061Z,4.23
2019-05-18T03:36:56.094Z,5.30
2019-05-18T03:39:26.220Z,5.07
2019-05-18T03:41:56.440Z,4.63
2019-05-18T03:44:27.147Z,4.77
2019-05-18T03:46:57.878Z,4.40
2019-05-18T03:49:28.022Z,4.50
2019-05-18T03:51:58.531Z,4.27
2019-05-18T03:54:28.771Z,4.60
2019-05-18T03:56:58.981Z,5.20
2019-05-18T03:59:29.299Z,5.50
2019-05-18T04:01:59.780Z,4.37
2019-05-18T04:04:31.171Z,4.80
2019-05-18T04:07:01.742Z,5.50
2019-05-18T04:09:31.893Z,5.23
2019-05-18T04:12:02.162Z,6.23
2019-05-18T04:14:33.834Z,5.40
2019-05-18T04:17:06.439Z,5.33
2019-05-18T04:19:46.079Z,4.13
2019-05-18T04:22:08.583Z,4.33
2019-05-18T04:24:39.663Z,4.60
2019-05-18T04:27:12.737Z,3.30
2019-05-18T04:29:42.724Z,4.40
2019-05-18T04:32:12.787Z,3.90
2019-05-18T04:34:43.053Z,3.60
2019-05-18T04:37:14.286Z,4.90
2019-05-18T04:39:45.167Z,4.33
2019-05-18T04:42:15.220Z,4.00
2019-05-18T04:44:45.364Z,3.50
2019-05-18T04:47:16.463Z,3.30
2019-05-18T04:50:03.959Z,4.10
2019-05-18T04:52:18.144Z,3.90
2019-05-18T04:54:48.755Z,4.13
2019-05-18T04:57:18.757Z,4.20
2019-05-18T04:59:49.430Z,4.50
2019-05-18T05:02:19.438Z,4.00
2019-05-18T05:04:52.720Z,4.00
2019-05-18T05:07:22.845Z,4.40
2019-05-18T05:09:52.853Z,4.70
2019-05-18T05:12:22.980Z,4.47
2019-05-18T05:14:53.116Z,4.27
2019-05-18T05:17:23.988Z,4.50
2019-05-18T05:19:54.088Z,4.10
2019-05-18T05:22:24.136Z,5.37
2019-05-18T05:24:54.129Z,4.97
2019-05-18T05:27:24.852Z,5.37
2019-05-18T05:29:55.049Z,4.20
2019-05-18T05:32:25.047Z,4.07
2019-05-18T05:34:55.257Z,4.07
2019-05-18T05:37:25.268Z,4.07
2019-05-18T05:39:55.245Z,4.40
2019-05-18T05:42:25.298Z,3.80
2019-05-18T05:44:55.331Z,3.33
2019-05-18T05:47:25.357Z,3.60
2019-05-18T05:49:55.460Z,3.63
2019-05-18T05:52:25.884Z,4.20
2019-05-18T05:54:56.352Z,3.80
2019-05-18T05:57:26.359Z,3.73
2019-05-18T05:59:57.126Z,3.40
2019-05-18T06:02:27.503Z,3.87
2019-05-18T06:04:58.451Z,3.73
2019-05-18T06:07:28.484Z,3.33
2019-05-18T06:09:58.466Z,3.27
2019-05-18T06:12:28.628Z,2.93
2019-05-18T06:14:58.706Z,2.70
2019-05-18T06:17:28.791Z,2.60
2019-05-18T06:19:59.017Z,2.20
2019-05-18T06:22:29.484Z,2.10
2019-05-18T06:24:59.485Z,2.17
2019-05-18T06:27:29.525Z,2.10
2019-05-18T06:29:59.734Z,1.60
2019-05-18T06:32:30.033Z,2.07
2019-05-18T06:35:00.223Z,2.00
2019-05-18T06:37:30.292Z,1.77
2019-05-18T06:40:00.400Z,1.73
2019-05-18T06:42:30.617Z,2.17
2019-05-18T06:45:00.778Z,2.07
2019-05-18T06:47:30.774Z,1.93
2019-05-18T06:50:04.808Z,1.90
2019-05-18T06:52:34.824Z,2.20
2019-05-18T06:55:05.976Z,1.80
2019-05-18T06:57:37.226Z,2.03
2019-05-18T07:00:09.020Z,1.47
2019-05-18T07:02:39.947Z,1.53
2019-05-18T07:05:10.160Z,1.80
2019-05-18T07:07:40.188Z,1.40
2019-05-18T07:10:11.465Z,1.80
2019-05-18T07:12:44.292Z,1.40
2019-05-18T07:15:19.476Z,1.70
2019-05-18T07:17:50.468Z,1.40
2019-05-18T07:20:30.508Z,1.53
2019-05-18T07:23:06.113Z,1.47
2019-05-18T07:25:37.301Z,1.80
2019-05-18T07:28:07.460Z,1.60
2019-05-18T07:30:38.229Z,1.90
2019-05-18T07:33:08.237Z,1.70
2019-05-18T07:35:38.287Z,1.50
2019-05-18T07:38:08.309Z,1.40
2019-05-18T07:40:38.329Z,1.37
2019-05-18T07:43:08.388Z,1.60
2019-05-18T07:45:38.479Z,1.40
2019-05-18T07:48:08.528Z,1.37
2019-05-18T07:50:38.518Z,1.37
2019-05-18T07:53:08.521Z,3.70
2019-05-18T07:55:38.520Z,4.00
2019-05-18T07:58:08.592Z,3.80
2019-05-18T08:00:38.735Z,2.57
2019-05-18T08:03:08.774Z,2.03
2019-05-18T08:05:38.871Z,2.33
2019-05-18T08:08:08.879Z,4.37
2019-05-18T08:10:43.478Z,2.43
2019-05-18T08:13:12.165Z,2.57
2019-05-18T08:15:42.187Z,2.37
2019-05-18T08:18:12.240Z,3.17
2019-05-18T08:20:43.004Z,3.00
2019-05-18T08:23:12.960Z,2.40
2019-05-18T08:25:43.069Z,1.70
2019-05-18T08:28:13.290Z,1.90
2019-05-18T08:30:43.982Z,1.57
2019-05-18T08:33:14.506Z,2.50
2019-05-18T08:35:45.047Z,2.40
2019-05-18T08:38:15.513Z,2.30
2019-05-18T08:40:45.509Z,1.90
2019-05-18T08:43:16.006Z,2.60
2019-05-18T08:45:46.058Z,2.27
2019-05-18T08:48:17.424Z,2.47
2019-05-18T08:50:48.290Z,2.10
2019-05-18T08:53:19.085Z,1.70
2019-05-18T08:55:52.748Z,2.10
2019-05-18T08:58:33.853Z,1.67
2019-05-18T09:01:13.937Z,1.70
2019-05-18T09:03:41.413Z,2.30
2019-05-18T09:06:13.075Z,2.20
2019-05-18T09:08:43.540Z,2.47
2019-05-18T09:11:13.988Z,3.30
2019-05-18T09:13:45.645Z,3.30
2019-05-18T09:16:15.959Z,4.07
2019-05-18T09:18:46.014Z,2.80
2019-05-18T09:21:16.828Z,2.60
2019-05-18T09:23:47.153Z,2.20
2019-05-18T09:26:17.768Z,3.20
2019-05-18T09:28:47.849Z,2.70
2019-05-18T09:31:17.855Z,2.20
2019-05-18T09:33:47.860Z,2.50
2019-05-18T09:36:18.205Z,2.40
2019-05-18T09:38:48.536Z,4.57
2019-05-18T09:41:18.599Z,2.10
2019-05-18T09:43:48.657Z,2.30
2019-05-18T09:46:19.105Z,2.27
2019-05-18T09:48:49.164Z,2.17
2019-05-18T09:51:19.354Z,2.60
2019-05-18T09:53:51.790Z,3.40
2019-05-18T09:56:21.580Z,3.30
2019-05-18T09:58:51.530Z,3.30
2019-05-18T10:01:21.581Z,2.53
2019-05-18T10:03:51.587Z,4.00
2019-05-18T10:06:21.599Z,4.07
2019-05-18T10:08:51.945Z,4.00
2019-05-18T10:11:22.076Z,3.60
2019-05-18T10:13:52.106Z,2.57
2019-05-18T10:16:22.676Z,2.60
2019-05-18T10:18:53.133Z,2.10
2019-05-18T10:21:23.610Z,2.80
2019-05-18T10:23:54.288Z,2.90
2019-05-18T10:26:24.480Z,2.37
2019-05-18T10:28:54.899Z,1.83
2019-05-18T10:31:25.105Z,2.33
2019-05-18T10:33:55.117Z,2.73
2019-05-18T10:36:25.060Z,1.63
2019-05-18T10:38:55.037Z,1.77
2019-05-18T10:41:25.588Z,2.60
2019-05-18T10:43:55.670Z,1.83
2019-05-18T10:46:25.880Z,2.57
2019-05-18T10:48:55.998Z,1.63
2019-05-18T10:51:26.107Z,1.70
2019-05-18T10:53:56.235Z,1.50
2019-05-18T10:56:26.416Z,2.40
2019-05-18T10:58:56.417Z,2.60
2019-05-18T11:01:26.454Z,2.40
2019-05-18T11:03:56.429Z,3.43
2019-05-18T11:06:26.502Z,2.33
2019-05-18T11:08:56.552Z,2.10
2019-05-18T11:11:26.646Z,2.30
2019-05-18T11:13:57.336Z,1.90
2019-05-18T11:16:27.320Z,2.10
2019-05-18T11:18:57.312Z,2.87
2019-05-18T11:21:27.391Z,1.90
2019-05-18T11:23:57.518Z,2.30
2019-05-18T11:26:28.736Z,1.97
2019-05-18T11:28:58.862Z,2.13
2019-05-18T11:31:28.871Z,6.10
2019-05-18T11:33:58.921Z,2.40
2019-05-18T11:36:29.828Z,2.30
2019-05-18T11:38:59.848Z,2.47
2019-05-18T11:41:29.952Z,3.00
2019-05-18T11:43:59.866Z,5.70
2019-05-18T11:46:29.834Z,2.20
2019-05-18T11:48:59.861Z,5.57
2019-05-18T11:51:29.818Z,2.97
2019-05-18T11:53:59.932Z,2.70
2019-05-18T11:56:29.932Z,2.60
2019-05-18T11:58:59.914Z,2.80
2019-05-18T12:01:30.107Z,6.27
2019-05-18T12:04:00.165Z,5.43
2019-05-18T12:06:30.104Z,6.03
2019-05-18T12:09:00.397Z,2.77
2019-05-18T12:11:30.493Z,2.63
2019-05-18T12:14:00.899Z,1.60
2019-05-18T12:16:30.996Z,1.93
2019-05-18T12:19:01.096Z,2.70
2019-05-18T12:21:31.113Z,1.83
2019-05-18T12:24:14.188Z,2.50
2019-05-18T12:26:32.836Z,2.67
2019-05-18T12:29:03.329Z,1.90
2019-05-18T12:31:33.515Z,2.17
2019-05-18T12:34:03.548Z,10.20
2019-05-18T12:36:33.607Z,12.30
2019-05-18T12:39:05.421Z,2.37
2019-05-18T12:41:35.412Z,2.43
2019-05-18T12:44:05.604Z,1.60
2019-05-18T12:46:35.702Z,1.70
2019-05-18T12:49:05.971Z,2.40
2019-05-18T12:51:36.801Z,1.70
2019-05-18T12:54:07.000Z,1.93
2019-05-18T12:56:37.023Z,1.90
2019-05-18T12:59:07.205Z,3.20
2019-05-18T13:01:39.607Z,1.90
2019-05-18T13:04:09.714Z,2.03
2019-05-18T13:06:39.812Z,1.70
2019-05-18T13:09:10.057Z,1.60
2019-05-18T13:11:42.084Z,1.90
2019-05-18T13:14:12.136Z,3.07
2019-05-18T13:16:42.258Z,2.23
2019-05-18T13:19:12.376Z,2.23
2019-05-18T13:21:42.480Z,1.80
2019-05-18T13:24:14.354Z,2.33
2019-05-18T13:26:44.972Z,1.80
2019-05-18T13:29:15.012Z,2.17
2019-05-18T13:31:45.425Z,2.00
2019-05-18T13:34:16.564Z,2.20
2019-05-18T13:36:46.556Z,1.83
2019-05-18T13:39:17.237Z,2.77
2019-05-18T13:41:47.430Z,1.67
2019-05-18T13:44:17.567Z,2.00
2019-05-18T13:46:48.298Z,1.77
2019-05-18T13:49:18.317Z,2.00
2019-05-18T13:51:48.557Z,1.80
2019-05-18T13:54:19.857Z,1.40
2019-05-18T13:56:50.365Z,1.80
2019-05-18T13:59:20.484Z,1.80
2019-05-18T14:01:50.756Z,2.50
2019-05-18T14:04:20.812Z,1.57
2019-05-18T14:06:50.877Z,15.57
2019-05-18T14:09:20.915Z,1.87
2019-05-18T14:11:50.909Z,19.43
2019-05-18T14:14:21.968Z,2.90
2019-05-18T14:16:52.698Z,5.17
2019-05-18T14:19:22.779Z,1.77
2019-05-18T14:21:53.525Z,1.90
2019-05-18T14:24:24.964Z,3.50
2019-05-18T14:26:55.269Z,9.60
2019-05-18T14:29:25.352Z,1.67
2019-05-18T14:31:57.086Z,1.60
2019-05-18T14:34:27.289Z,13.17
2019-05-18T14:36:57.998Z,2.80
2019-05-18T14:39:28.146Z,1.70
2019-05-18T14:41:58.381Z,2.47
2019-05-18T14:44:28.472Z,9.83
2019-05-18T14:46:58.819Z,1.37
2019-05-18T14:49:29.188Z,2.80
2019-05-18T14:51:59.481Z,4.00
2019-05-18T14:54:29.558Z,23.30
2019-05-18T14:56:59.893Z,7.40
2019-05-18T14:59:29.937Z,2.13
2019-05-18T15:02:00.009Z,2.43
2019-05-18T15:04:30.024Z,1.67
2019-05-18T15:07:00.069Z,2.40
2019-05-18T15:09:30.266Z,1.70
2019-05-18T15:12:00.261Z,1.33
2019-05-18T15:14:30.793Z,1.90
2019-05-18T15:17:01.173Z,2.03
2019-05-18T15:19:31.344Z,1.53
2019-05-18T15:22:01.649Z,2.20
2019-05-18T15:24:31.707Z,1.97
2019-05-18T15:27:01.859Z,1.83
2019-05-18T15:29:31.917Z,1.40
2019-05-18T15:32:02.718Z,1.27
2019-05-18T15:34:33.357Z,1.60
2019-05-18T15:37:03.929Z,1.27
2019-05-18T15:39:34.004Z,1.57
2019-05-18T15:42:04.510Z,1.37
2019-05-18T15:44:35.003Z,1.50
2019-05-18T15:47:05.014Z,7.33
2019-05-18T15:49:35.113Z,11.47
2019-05-18T15:52:05.371Z,1.63
2019-05-18T15:54:36.354Z,1.30
2019-05-18T15:57:06.437Z,1.40
2019-05-18T15:59:36.756Z,1.77
2019-05-18T16:02:07.007Z,1.67
2019-05-18T16:04:37.035Z,1.70
2019-05-18T16:07:08.109Z,2.03
2019-05-18T16:09:38.223Z,2.03
2019-05-18T16:12:08.863Z,1.60
2019-05-18T16:14:40.149Z,1.60
2019-05-18T16:17:10.325Z,2.90
2019-05-18T16:19:40.492Z,1.93
2019-05-18T16:22:11.295Z,2.37
2019-05-18T16:24:42.396Z,2.90
2019-05-18T16:27:12.853Z,2.33
2019-05-18T16:29:43.393Z,2.17
2019-05-18T16:32:13.453Z,1.80
2019-05-18T16:34:43.617Z,2.37
2019-05-18T16:37:14.285Z,2.50
2019-05-18T16:39:44.368Z,1.73
2019-05-18T16:42:14.684Z,1.60
2019-05-18T16:44:44.856Z,2.10
2019-05-18T16:47:14.876Z,2.07
2019-05-18T16:49:44.916Z,1.70
2019-05-18T16:52:15.154Z,1.90
2019-05-18T16:54:45.150Z,1.87
2019-05-18T16:57:16.760Z,2.00
2019-05-18T16:59:46.785Z,2.03
2019-05-18T17:02:30.783Z,1.90
2019-05-18T17:04:48.885Z,2.03
2019-05-18T17:07:18.891Z,1.67
2019-05-18T17:09:49.218Z,1.70
2019-05-18T17:12:19.183Z,1.50
2019-05-18T17:14:49.249Z,1.67
2019-05-18T17:17:19.878Z,1.53
2019-05-18T17:19:49.944Z,1.47
2019-05-18T17:22:19.914Z,1.77
2019-05-18T17:24:50.093Z,1.70
2019-05-18T17:27:20.168Z,2.57
2019-05-18T17:29:50.304Z,2.47
2019-05-18T17:32:20.677Z,1.40
2019-05-18T17:34:50.816Z,2.27
2019-05-18T17:37:21.025Z,2.00
2019-05-18T17:39:51.665Z,3.10
2019-05-18T17:42:21.841Z,1.83
2019-05-18T17:44:51.920Z,3.03
2019-05-18T17:47:22.394Z,2.10
2019-05-18T17:49:52.576Z,2.40
2019-05-18T17:52:22.546Z,2.10
2019-05-18T17:54:52.508Z,2.07
2019-05-18T17:57:22.610Z,2.00
2019-05-18T17:59:53.008Z,2.13
2019-05-18T18:02:23.132Z,1.87
2019-05-18T18:04:54.271Z,2.93
2019-05-18T18:07:24.592Z,2.00
2019-05-18T18:09:55.291Z,1.67
2019-05-18T18:12:25.399Z,2.20
2019-05-18T18:14:56.052Z,1.70
2019-05-18T18:17:26.168Z,2.20
2019-05-18T18:19:56.860Z,1.50
2019-05-18T18:22:27.269Z,1.83
2019-05-18T18:24:57.901Z,1.90
2019-05-18T18:27:29.820Z,1.87
2019-05-18T18:30:00.309Z,2.33
2019-05-18T18:32:30.746Z,1.73
2019-05-18T18:35:00.853Z,2.17
2019-05-18T18:37:31.785Z,4.37
2019-05-18T18:40:09.490Z,5.13
2019-05-18T18:42:40.877Z,5.10
2019-05-18T18:45:12.608Z,5.70
2019-05-18T18:47:42.654Z,5.00
2019-05-18T18:50:18.093Z,5.40
2019-05-18T18:52:48.390Z,5.87
2019-05-18T18:55:18.557Z,4.97
2019-05-18T18:57:48.845Z,4.87
2019-05-18T19:00:19.243Z,4.90
2019-05-18T19:02:50.098Z,4.93
2019-05-18T19:05:20.361Z,4.70
2019-05-18T19:07:51.528Z,4.63
2019-05-18T19:10:21.764Z,4.30
2019-05-18T19:13:11.089Z,4.47
2019-05-18T19:15:41.117Z,3.90
2019-05-18T19:18:11.647Z,4.40
2019-05-18T19:20:42.645Z,4.17
2019-05-18T19:23:12.741Z,3.90
2019-05-18T19:25:43.361Z,3.60
2019-05-18T19:28:14.014Z,3.33
2019-05-18T19:30:44.032Z,2.37
2019-05-18T19:33:14.145Z,3.00
2019-05-18T19:35:44.302Z,3.37
2019-05-18T19:38:14.514Z,3.77
2019-05-18T19:40:44.626Z,3.60
2019-05-18T19:43:14.684Z,2.60
2019-05-18T19:45:44.704Z,2.20
2019-05-18T19:48:14.755Z,2.60
2019-05-18T19:50:44.944Z,2.70
2019-05-18T19:53:16.050Z,2.93
2019-05-18T19:55:46.562Z,2.30
2019-05-18T19:58:16.621Z,3.00
2019-05-18T20:00:47.586Z,2.60
2019-05-18T20:03:17.721Z,2.73
2019-05-18T20:05:48.045Z,2.60
2019-05-18T20:08:18.718Z,3.00
2019-05-18T20:10:48.946Z,2.27
2019-05-18T20:13:19.941Z,2.43
2019-05-18T20:15:50.053Z,2.57
2019-05-18T20:18:20.065Z,2.80
2019-05-18T20:20:50.340Z,2.73
2019-05-18T20:23:20.326Z,2.50
2019-05-18T20:25:50.388Z,3.03
2019-05-18T20:28:23.660Z,2.67
2019-05-18T20:30:52.129Z,2.70
2019-05-18T20:33:22.228Z,3.07
2019-05-18T20:35:52.200Z,3.13
2019-05-18T20:38:22.257Z,3.53
2019-05-18T20:40:52.476Z,3.67
2019-05-18T20:43:22.631Z,3.80
2019-05-18T20:45:52.665Z,4.20
2019-05-18T20:48:23.668Z,4.10
2019-05-18T20:50:53.769Z,3.30
2019-05-18T20:53:23.795Z,4.53
2019-05-18T20:55:53.819Z,3.70
2019-05-18T20:58:37.136Z,3.77
2019-05-18T21:00:55.624Z,3.53
2019-05-18T21:03:25.612Z,4.60
2019-05-18T21:05:55.912Z,4.40
2019-05-18T21:08:25.917Z,4.33
2019-05-18T21:10:55.908Z,4.43
2019-05-18T21:13:26.087Z,3.60
2019-05-18T21:15:56.104Z,2.70
2019-05-18T21:18:26.041Z,2.90
2019-05-18T21:20:56.016Z,2.60
2019-05-18T21:23:26.109Z,2.53
2019-05-18T21:25:56.182Z,2.37
2019-05-18T21:28:26.326Z,2.37
2019-05-18T21:30:56.320Z,2.40
2019-05-18T21:33:26.290Z,2.60
2019-05-18T21:35:56.312Z,3.33
2019-05-18T21:38:27.179Z,3.10
2019-05-18T21:40:57.165Z,2.90
2019-05-18T21:43:27.395Z,3.30
2019-05-18T21:45:57.397Z,2.50
2019-05-18T21:48:27.577Z,3.07
2019-05-18T21:50:57.575Z,2.97
2019-05-18T21:53:27.799Z,3.53
2019-05-18T21:55:57.812Z,3.60
2019-05-18T21:58:27.923Z,3.70
2019-05-18T22:00:58.454Z,4.20
2019-05-18T22:03:28.449Z,3.70
2019-05-18T22:05:58.537Z,4.53
2019-05-18T22:08:28.621Z,3.70
2019-05-18T22:10:58.848Z,3.30
2019-05-18T22:13:29.065Z,3.07
2019-05-18T22:15:59.273Z,4.40
2019-05-18T22:18:29.242Z,4.40
2019-05-18T22:20:59.283Z,4.57
2019-05-18T22:23:29.278Z,4.47
2019-05-18T22:25:59.638Z,5.43
2019-05-18T22:28:29.682Z,5.47
2019-05-18T22:30:59.718Z,5.33
2019-05-18T22:33:30.182Z,5.37
2019-05-18T22:36:00.396Z,5.57
2019-05-18T22:38:30.400Z,5.40
2019-05-18T22:41:00.494Z,5.17
2019-05-18T22:43:30.817Z,4.53
2019-05-18T22:46:01.049Z,4.67
2019-05-18T22:48:41.009Z,5.13
2019-05-18T22:51:03.043Z,4.07
2019-05-18T22:53:33.254Z,4.27
2019-05-18T22:56:03.469Z,4.50
2019-05-18T22:58:33.520Z,4.00
2019-05-18T23:01:03.589Z,4.50
2019-05-18T23:03:33.848Z,4.30
2019-05-18T23:06:04.160Z,4.03
2019-05-18T23:08:34.225Z,4.37
2019-05-18T23:11:04.512Z,4.10
2019-05-18T23:13:34.689Z,4.20
2019-05-18T23:16:05.741Z,4.43
2019-05-18T23:18:56.863Z,4.10
2019-05-18T23:21:25.353Z,3.70
2019-05-18T23:23:55.460Z,3.70
2019-05-18T23:26:25.488Z,4.50
2019-05-18T23:28:55.548Z,3.90
2019-05-18T23:31:25.703Z,3.47
2019-05-18T23:33:55.720Z,3.33
2019-05-18T23:36:25.745Z,3.63
2019-05-18T23:38:55.818Z,3.10
2019-05-18T23:41:25.929Z,3.27
2019-05-18T23:43:56.095Z,3.10
2019-05-18T23:46:26.360Z,3.10
2019-05-18T23:49:08.712Z,3.30
2019-05-18T23:51:28.708Z,3.17
2019-05-18T23:53:58.784Z,3.53
2019-05-18T23:56:28.876Z,3.80
2019-05-18T23:58:58.832Z,3.60
